Time;durP1;ratioP1;P1;durP2;ratioP2;P2;SDS_P1;SDS_P2;PMS_P1;PMS_P2;Temp;Humidity;BMP_temperature;BMP_pressure;BME280_temperature;BME280_humidity;BME280_pressure;Samples;Min_cycle;Max_cycle;Signal;HPM_P1;HPM_P2
2023/05/25 00:02:16;;;;;;;21.80;6.57;;;;;;;8.81;100.00;101716.69;4972871;28;20055;-71
2023/05/25 00:04:47;;;;;;;14.40;6.65;;;;;;;8.82;100.00;101719.25;4955129;28;20046;-70
2023/05/25 00:07:14;;;;;;;14.30;5.85;;;;;;;8.85;100.00;101721.69;4972852;28;20125;-70
2023/05/25 00:09:45;;;;;;;13.90;6.00;;;;;;;8.84;100.00;101713.75;4970355;28;20491;-71
2023/05/25 00:12:13;;;;;;;18.13;5.78;;;;;;;8.79;100.00;101721.31;4972525;28;20062;-71
2023/05/25 00:14:39;;;;;;;14.05;6.43;;;;;;;8.75;100.00;101709.16;4972647;28;20074;-71
2023/05/25 00:17:08;;;;;;;17.38;5.85;;;;;;;8.75;100.00;101712.69;4972610;28;20053;-71
2023/05/25 00:19:36;;;;;;;18.27;6.97;;;;;;;8.80;100.00;101712.31;4972445;28;20113;-71
2023/05/25 00:22:03;;;;;;;15.20;6.30;;;;;;;8.76;100.00;101716.22;4971331;28;20082;-71
2023/05/25 00:24:30;;;;;;;15.70;6.03;;;;;;;8.75;100.00;101717.19;4972562;28;20074;-71
2023/05/25 00:26:57;;;;;;;19.48;6.35;;;;;;;8.73;100.00;101722.66;4972442;28;20050;-71
2023/05/25 00:29:24;;;;;;;14.38;5.55;;;;;;;8.69;100.00;101715.00;4965812;28;20071;-70
2023/05/25 00:31:52;;;;;;;12.80;5.72;;;;;;;8.67;100.00;101714.28;4953004;28;20110;-71
2023/05/25 00:34:19;;;;;;;16.55;6.75;;;;;;;8.67;100.00;101715.13;4953490;29;20111;-71
2023/05/25 00:36:49;;;;;;;19.05;6.32;;;;;;;8.63;100.00;101715.50;4953304;29;20051;-71
2023/05/25 00:39:17;;;;;;;17.20;6.40;;;;;;;8.57;100.00;101712.34;4952875;29;20054;-70
2023/05/25 00:41:46;;;;;;;14.30;6.00;;;;;;;8.56;100.00;101715.97;4952867;29;20043;-70
2023/05/25 00:44:13;;;;;;;17.08;6.00;;;;;;;8.51;100.00;101718.19;4952886;29;20066;-70
2023/05/25 00:46:46;;;;;;;17.02;5.45;;;;;;;8.55;100.00;101713.44;4952809;29;20062;-72
2023/05/25 00:49:14;;;;;;;19.65;6.90;;;;;;;8.58;100.00;101714.03;4952494;29;20074;-70
2023/05/25 00:51:45;;;;;;;20.83;7.20;;;;;;;8.56;100.00;101721.31;4952611;29;20043;-71
2023/05/25 00:54:15;;;;;;;17.23;6.18;;;;;;;8.53;100.00;101716.22;4952360;28;20150;-71
2023/05/25 00:56:46;;;;;;;17.05;6.60;;;;;;;8.45;100.00;101724.00;4951264;29;20098;-71
2023/05/25 00:59:19;;;;;;;14.80;6.30;;;;;;;8.47;100.00;101714.06;4951478;29;20047;-70
2023/05/25 01:01:48;;;;;;;16.25;6.30;;;;;;;8.51;100.00;101712.00;4948651;29;20066;-72
2023/05/25 01:04:15;;;;;;;18.58;6.47;;;;;;;8.50;100.00;101712.94;4952424;28;20071;-71
2023/05/25 01:07:36;;;;;;;24.40;6.40;;;;;;;8.49;100.00;101709.41;4952499;29;20047;-72
2023/05/25 01:10:10;;;;;;;15.90;6.40;;;;;;;8.45;100.00;101712.47;4857266;29;20049;-71
2023/05/25 01:12:40;;;;;;;18.25;6.90;;;;;;;8.43;100.00;101704.56;4935334;28;20084;-71
2023/05/25 01:15:08;;;;;;;17.65;6.32;;;;;;;8.45;100.00;101713.31;4951989;29;20064;-71
2023/05/25 01:17:38;;;;;;;23.13;7.03;;;;;;;8.43;100.00;101714.41;4951674;29;20107;-70
2023/05/25 01:20:08;;;;;;;14.73;7.00;;;;;;;8.39;100.00;101721.81;4951383;28;20044;-70
2023/05/25 01:22:55;;;;;;;15.55;6.90;;;;;;;8.37;100.00;101726.47;4951954;28;20058;-70
2023/05/25 01:25:30;;;;;;;17.13;6.25;;;;;;;8.27;100.00;101714.78;4945197;29;20056;-71
2023/05/25 01:28:03;;;;;;;16.50;6.47;;;;;;;8.24;100.00;101720.38;4952043;28;20054;-71
2023/05/25 01:30:31;;;;;;;20.67;7.28;;;;;;;8.24;100.00;101720.38;4966227;28;20503;-71
2023/05/25 01:32:59;;;;;;;16.40;6.93;;;;;;;8.24;100.00;101720.38;4953650;28;20438;-70
2023/05/25 01:35:27;;;;;;;20.25;7.53;;;;;;;8.26;100.00;101718.41;4970499;28;20055;-70
2023/05/25 01:37:53;;;;;;;19.15;6.95;;;;;;;8.21;100.00;101720.59;4971258;28;20050;-70
2023/05/25 01:40:20;;;;;;;20.40;6.57;;;;;;;8.14;100.00;101720.22;4971937;28;20507;-71
2023/05/25 01:42:46;;;;;;;16.45;6.95;;;;;;;8.18;100.00;101720.84;4955924;28;20047;-71
2023/05/25 01:45:14;;;;;;;17.58;7.03;;;;;;;8.21;100.00;101723.28;4952160;29;20047;-71
2023/05/25 01:47:48;;;;;;;13.52;7.55;;;;;;;8.17;100.00;101730.69;4951875;29;20134;-71
2023/05/25 01:50:43;;;;;;;15.43;6.70;;;;;;;8.16;100.00;101725.44;4966288;28;20130;-71
2023/05/25 01:53:17;;;;;;;19.13;8.00;;;;;;;8.12;100.00;101727.50;4971091;28;20844;-71
2023/05/25 01:56:07;;;;;;;22.60;7.07;;;;;;;8.07;100.00;101725.19;4971277;28;20070;-71
2023/05/25 01:58:42;;;;;;;18.98;7.07;;;;;;;8.04;100.00;101720.09;4970959;28;20057;-71
2023/05/25 02:01:11;;;;;;;19.58;7.05;;;;;;;8.04;100.00;101720.09;4970681;28;20054;-71
2023/05/25 02:03:45;;;;;;;18.43;7.27;;;;;;;8.03;100.00;101723.75;4971440;28;20062;-71
2023/05/25 02:06:12;;;;;;;19.90;7.80;;;;;;;7.98;100.00;101722.38;4973874;28;20414;-72
2023/05/25 02:08:39;;;;;;;16.35;6.78;;;;;;;7.94;100.00;101711.09;4975083;28;20487;-72
2023/05/25 02:11:05;;;;;;;19.63;7.00;;;;;;;7.94;100.00;101716.44;4975133;28;20458;-71
2023/05/25 02:13:32;;;;;;;18.08;6.53;;;;;;;7.96;100.00;101711.84;4975058;28;20113;-71
2023/05/25 02:15:59;;;;;;;14.80;7.30;;;;;;;7.93;100.00;101708.53;4975021;28;20051;-72
2023/05/25 02:18:26;;;;;;;17.58;6.85;;;;;;;7.87;100.00;101712.53;4974019;28;20078;-72
2023/05/25 02:20:53;;;;;;;16.73;6.85;;;;;;;7.86;100.00;101722.38;4974606;28;20051;-71
2023/05/25 02:23:20;;;;;;;17.02;7.57;;;;;;;7.87;100.00;101717.88;4974833;28;20081;-71
2023/05/25 02:25:47;;;;;;;19.50;7.30;;;;;;;7.86;100.00;101710.84;4974975;28;20376;-71
2023/05/25 02:28:14;;;;;;;16.42;6.80;;;;;;;7.78;100.00;101722.09;4974273;28;20042;-72
2023/05/25 02:30:40;;;;;;;34.67;7.90;;;;;;;7.76;100.00;101716.00;4973596;28;20127;-71
2023/05/25 02:33:07;;;;;;;18.27;7.20;;;;;;;7.81;100.00;101723.66;4974693;28;20558;-72
2023/05/25 02:35:34;;;;;;;20.58;7.63;;;;;;;7.78;100.00;101724.75;4972715;28;20058;-72
2023/05/25 02:38:00;;;;;;;20.05;7.45;;;;;;;7.78;100.00;101729.25;4973340;28;20495;-72
2023/05/25 02:40:27;;;;;;;21.70;7.75;;;;;;;7.83;100.00;101724.41;4972975;28;20470;-70
2023/05/25 02:42:54;;;;;;;20.50;7.47;;;;;;;7.84;100.00;101723.44;4974369;28;20463;-72
2023/05/25 02:45:20;;;;;;;15.57;7.38;;;;;;;7.81;100.00;101723.66;4972427;28;20466;-71
2023/05/25 02:47:47;;;;;;;19.63;7.95;;;;;;;7.79;100.00;101720.25;4974760;28;20062;-71
2023/05/25 02:50:13;;;;;;;17.85;7.13;;;;;;;7.79;100.00;101709.56;4973105;28;20050;-72
2023/05/25 02:52:40;;;;;;;21.27;8.18;;;;;;;7.78;100.00;101721.25;4974128;28;20046;-72
2023/05/25 02:55:09;;;;;;;19.45;7.60;;;;;;;7.72;100.00;101709.19;4974127;28;20050;-72
2023/05/25 02:57:38;;;;;;;21.20;7.45;;;;;;;7.75;100.00;101718.81;4974034;28;20054;-71
2023/05/25 03:00:06;;;;;;;18.15;7.30;;;;;;;7.73;100.00;101726.91;4973919;28;20055;-71
2023/05/25 03:02:33;;;;;;;18.80;7.50;;;;;;;7.72;100.00;101724.38;4973920;28;20415;-71
2023/05/25 03:05:00;;;;;;;17.50;7.57;;;;;;;7.72;100.00;101721.69;4973906;28;20121;-72
2023/05/25 03:07:30;;;;;;;20.48;8.18;;;;;;;7.76;100.00;101717.81;4973717;28;20134;-71
2023/05/25 03:09:58;;;;;;;19.15;8.63;;;;;;;7.76;100.00;101716.00;4973670;28;20054;-72
2023/05/25 03:12:25;;;;;;;24.27;8.20;;;;;;;7.74;100.00;101720.63;4974075;28;20133;-72
2023/05/25 03:14:51;;;;;;;17.58;7.90;;;;;;;7.79;100.00;101718.44;4970388;28;20444;-72
2023/05/25 03:17:18;;;;;;;17.80;7.78;;;;;;;7.78;100.00;101719.41;4972557;28;20488;-72
2023/05/25 03:19:44;;;;;;;20.38;9.15;;;;;;;7.78;100.00;101718.56;4973925;28;20147;-72
2023/05/25 03:22:11;;;;;;;23.65;8.35;;;;;;;7.80;100.00;101721.97;4973013;28;20554;-72
2023/05/25 03:24:40;;;;;;;23.77;8.73;;;;;;;7.79;100.00;101717.59;4973856;28;20070;-72
2023/05/25 03:27:07;;;;;;;20.70;8.23;;;;;;;7.80;100.00;101733.50;4973423;28;20125;-71
2023/05/25 03:29:34;;;;;;;22.67;9.13;;;;;;;7.85;100.00;101735.88;4966023;28;20055;-71
2023/05/25 03:32:00;;;;;;;20.25;9.00;;;;;;;7.83;100.00;101733.25;4952866;28;20051;-71
2023/05/25 03:34:28;;;;;;;17.42;7.82;;;;;;;7.81;100.00;101734.34;4952618;28;20055;-71
2023/05/25 03:36:55;;;;;;;15.85;7.50;;;;;;;7.83;100.00;101738.59;4954406;28;20103;-70
2023/05/25 03:39:21;;;;;;;18.67;8.18;;;;;;;7.86;100.00;101745.56;4954632;28;20043;-72
2023/05/25 03:41:48;;;;;;;19.13;8.23;;;;;;;7.87;100.00;101737.44;4951737;28;20079;-71
2023/05/25 03:44:15;;;;;;;22.77;8.80;;;;;;;7.85;100.00;101742.06;4953933;28;20050;-71
2023/05/25 03:46:41;;;;;;;23.23;8.02;;;;;;;7.89;100.00;101742.66;4953578;28;20055;-71
2023/05/25 03:49:12;;;;;;;21.17;8.23;;;;;;;8.16;100.00;101738.81;4951834;28;20070;-71
2023/05/25 03:51:40;;;;;;;20.08;8.40;;;;;;;8.19;100.00;101746.59;4953078;28;20130;-71
2023/05/25 03:54:07;;;;;;;20.05;8.52;;;;;;;8.19;100.00;101738.56;4950579;28;20051;-71
2023/05/25 03:56:33;;;;;;;25.10;9.23;;;;;;;8.24;100.00;101744.44;4951178;29;20118;-71
2023/05/25 03:59:00;;;;;;;19.05;8.75;;;;;;;8.21;100.00;101747.34;4953952;29;20077;-72
2023/05/25 04:01:28;;;;;;;24.58;8.90;;;;;;;8.01;100.00;101749.72;4953489;29;20098;-71
2023/05/25 04:03:55;;;;;;;27.05;9.57;;;;;;;8.00;100.00;101748.03;4953834;29;20042;-70
2023/05/25 04:06:24;;;;;;;24.65;9.13;;;;;;;8.09;100.00;101750.00;4953567;28;20471;-71
2023/05/25 04:08:51;;;;;;;19.63;8.63;;;;;;;8.17;100.00;101757.41;4953835;28;20044;-71
2023/05/25 04:11:18;;;;;;;26.77;10.10;;;;;;;8.26;100.00;101759.38;4953228;29;20067;-71
2023/05/25 04:13:45;;;;;;;19.73;8.25;;;;;;;8.33;100.00;101759.72;4935958;29;20051;-71
2023/05/25 04:16:12;;;;;;;19.77;8.50;;;;;;;8.34;100.00;101758.78;4952031;28;20134;-71
2023/05/25 04:18:39;;;;;;;22.92;8.77;;;;;;;8.42;100.00;101758.16;4953533;28;20106;-71
2023/05/25 04:21:05;;;;;;;21.23;9.63;;;;;;;8.40;100.00;101763.66;4952058;28;20071;-71
2023/05/25 04:23:32;;;;;;;18.05;8.52;;;;;;;8.48;100.00;101776.41;4952367;29;20049;-71
2023/05/25 04:25:59;;;;;;;25.55;9.93;;;;;;;8.49;100.00;101772.75;4953028;28;20123;-71
2023/05/25 04:28:27;;;;;;;26.40;9.63;;;;;;;8.49;100.00;101765.59;4952854;28;20055;-71
2023/05/25 04:30:56;;;;;;;22.65;9.02;;;;;;;8.44;100.00;101775.81;4970607;28;20046;-71
2023/05/25 04:33:23;;;;;;;23.88;9.65;;;;;;;8.47;100.00;101774.69;4971788;28;20077;-71
2023/05/25 04:35:50;;;;;;;30.48;9.80;;;;;;;8.45;100.00;101773.97;4972537;28;20133;-71
2023/05/25 04:38:17;;;;;;;22.90;10.13;;;;;;;8.47;100.00;101780.91;4971029;28;20062;-71
2023/05/25 04:40:46;;;;;;;22.67;8.90;;;;;;;8.63;100.00;101777.88;4970620;28;20508;-76
2023/05/25 04:43:16;;;;;;;29.70;9.07;;;;;;;8.66;100.00;101777.63;4972234;28;20057;-73
2023/05/25 04:45:44;;;;;;;23.40;9.48;;;;;;;8.68;100.00;101780.16;4972498;28;20062;-74
2023/05/25 04:48:12;;;;;;;18.85;8.90;;;;;;;8.76;100.00;101785.78;4971070;28;20045;-73
2023/05/25 04:50:41;;;;;;;27.20;9.73;;;;;;;8.75;100.00;101784.09;4972280;28;20074;-73
2023/05/25 04:53:08;;;;;;;27.08;10.23;;;;;;;8.74;100.00;101779.69;4971250;28;20046;-73
2023/05/25 04:55:34;;;;;;;25.48;10.10;;;;;;;8.78;100.00;101786.47;4971743;28;20498;-73
2023/05/25 04:58:02;;;;;;;34.92;10.98;;;;;;;8.85;100.00;101782.38;4972409;28;20051;-72
2023/05/25 05:00:28;;;;;;;26.48;10.35;;;;;;;8.93;100.00;101777.25;4972175;28;20074;-72
2023/05/25 05:02:57;;;;;;;30.92;10.52;;;;;;;8.91;100.00;101776.50;4972561;28;20047;-72
2023/05/25 05:05:24;;;;;;;32.80;11.45;;;;;;;8.99;100.00;101774.06;4962802;28;20042;-71
2023/05/25 05:07:52;;;;;;;32.25;12.05;;;;;;;9.05;100.00;101770.88;4972038;28;20053;-74
2023/05/25 05:10:19;;;;;;;31.00;11.45;;;;;;;9.11;100.00;101769.53;4971673;28;20054;-73
2023/05/25 05:12:45;;;;;;;41.28;12.20;;;;;;;9.07;100.00;101779.66;4971680;28;20046;-72
2023/05/25 05:15:12;;;;;;;34.70;13.23;;;;;;;9.14;100.00;101773.81;4971571;28;20504;-73
2023/05/25 05:17:38;;;;;;;23.83;10.82;;;;;;;9.20;100.00;101768.81;4971677;28;20145;-73
2023/05/25 05:20:06;;;;;;;37.75;12.82;;;;;;;9.23;100.00;101773.91;4970713;28;20050;-72
2023/05/25 05:22:33;;;;;;;29.52;12.68;;;;;;;9.28;100.00;101782.44;4971469;28;20051;-72
2023/05/25 05:25:00;;;;;;;35.28;12.98;;;;;;;9.30;100.00;101784.97;4971942;28;20051;-71
2023/05/25 05:27:26;;;;;;;30.40;12.55;;;;;;;9.38;100.00;101779.00;4972189;28;20117;-72
2023/05/25 05:29:53;;;;;;;37.85;13.15;;;;;;;9.48;100.00;101791.50;4961154;28;20055;-73
2023/05/25 05:32:19;;;;;;;40.08;12.52;;;;;;;9.55;100.00;101790.03;4952412;28;20051;-72
2023/05/25 05:34:46;;;;;;;31.90;13.07;;;;;;;9.54;100.00;101788.34;4952551;29;20075;-73
2023/05/25 05:37:12;;;;;;;35.60;11.63;;;;;;;9.70;100.00;101792.41;4951535;29;20110;-73
2023/05/25 05:39:39;;;;;;;35.28;13.40;;;;;;;9.70;100.00;101797.75;4951930;28;20055;-73
2023/05/25 05:42:06;;;;;;;37.53;13.77;;;;;;;9.73;100.00;101802.88;4952258;28;20110;-73
2023/05/25 05:44:33;;;;;;;35.72;13.80;;;;;;;9.75;100.00;101800.88;4935691;29;20055;-73
2023/05/25 05:47:00;;;;;;;34.72;13.93;;;;;;;9.80;100.00;101794.19;4952474;28;20419;-72
2023/05/25 05:49:28;;;;;;;29.77;12.40;;;;;;;9.84;100.00;101797.44;4952759;28;20051;-70
2023/05/25 05:51:54;;;;;;;29.17;13.20;;;;;;;9.86;100.00;101795.50;4935101;29;20209;-73
2023/05/25 05:54:21;;;;;;;49.45;13.18;;;;;;;9.92;100.00;101796.78;4952453;29;20479;-73
2023/05/25 05:56:49;;;;;;;32.60;12.48;;;;;;;10.04;100.00;101801.97;4952444;28;20080;-73
2023/05/25 05:59:15;;;;;;;35.42;12.00;;;;;;;10.04;100.00;101812.69;4952141;29;20051;-72
2023/05/25 06:01:42;;;;;;;30.98;12.45;;;;;;;10.15;100.00;101810.94;4951971;29;20051;-73
2023/05/25 06:04:09;;;;;;;40.00;14.70;;;;;;;10.19;100.00;101810.53;4951728;28;20051;-73
2023/05/25 06:06:36;;;;;;;41.42;13.55;;;;;;;10.27;100.00;101820.63;4952146;28;20054;-72
2023/05/25 06:09:05;;;;;;;35.70;13.63;;;;;;;10.33;100.00;101817.41;4951954;28;20050;-72
2023/05/25 06:11:35;;;;;;;36.42;14.43;;;;;;;10.43;100.00;101815.63;4952167;29;20519;-72
2023/05/25 06:14:02;;;;;;;38.08;12.88;;;;;;;10.55;100.00;101812.88;4935153;29;20071;-72
2023/05/25 06:16:29;;;;;;;31.45;12.50;;;;;;;10.54;100.00;101813.88;4952057;29;20055;-72
2023/05/25 06:18:55;;;;;;;33.50;13.05;;;;;;;10.61;100.00;101823.09;4952518;28;20130;-72
2023/05/25 06:21:22;;;;;;;31.15;12.88;;;;;;;10.69;100.00;101823.28;4951593;28;20461;-72
2023/05/25 06:23:49;;;;;;;34.00;12.13;;;;;;;10.73;100.00;101820.19;4952183;28;20111;-73
2023/05/25 06:26:15;;;;;;;35.25;12.45;;;;;;;10.82;100.00;101826.56;4951655;28;20067;-72
2023/05/25 06:28:42;;;;;;;34.70;13.25;;;;;;;10.94;100.00;101822.81;4952101;28;20055;-73
2023/05/25 06:31:08;;;;;;;32.88;12.80;;;;;;;10.99;100.00;101823.25;4970938;28;20051;-73
2023/05/25 06:33:35;;;;;;;31.60;11.45;;;;;;;11.12;100.00;101827.53;4970916;28;20159;-73
2023/05/25 06:36:01;;;;;;;36.25;13.40;;;;;;;11.30;100.00;101828.56;4969589;28;20537;-72
2023/05/25 06:38:28;;;;;;;29.92;11.65;;;;;;;11.30;100.00;101833.09;4970668;28;20191;-73
2023/05/25 06:40:54;;;;;;;35.70;11.35;;;;;;;11.44;100.00;101836.22;4953857;28;20109;-73
2023/05/25 06:43:21;;;;;;;34.25;12.02;;;;;;;11.56;100.00;101845.03;4953835;28;20472;-73
2023/05/25 06:45:48;;;;;;;32.42;9.90;;;;;;;11.69;100.00;101839.44;4970673;28;20059;-73
2023/05/25 06:48:15;;;;;;;37.15;10.68;;;;;;;11.94;100.00;101843.41;4970435;28;20589;-73
2023/05/25 06:50:42;;;;;;;28.40;10.30;;;;;;;11.83;100.00;101830.94;4971767;28;20423;-73
2023/05/25 06:53:10;;;;;;;31.20;10.70;;;;;;;12.00;100.00;101831.22;4974068;28;20113;-74
2023/05/25 06:55:36;;;;;;;28.23;9.25;;;;;;;12.22;100.00;101832.75;4973410;28;20098;-75
2023/05/25 06:58:03;;;;;;;31.92;8.30;;;;;;;12.41;100.00;101835.41;4974200;28;20051;-74
2023/05/25 07:00:30;;;;;;;31.65;8.88;;;;;;;12.59;100.00;101830.09;4973779;28;20149;-73
2023/05/25 07:02:56;;;;;;;30.65;7.93;;;;;;;12.68;100.00;101834.63;4974114;28;20101;-72
2023/05/25 07:05:23;;;;;;;23.75;8.75;;;;;;;12.78;100.00;101827.38;4950611;28;20116;-73
2023/05/25 07:07:49;;;;;;;24.98;8.07;;;;;;;13.00;100.00;101836.94;4955033;29;20118;-74
2023/05/25 07:10:16;;;;;;;25.48;7.97;;;;;;;13.06;100.00;101838.19;4954016;28;20073;-73
2023/05/25 07:12:43;;;;;;;25.40;8.15;;;;;;;13.22;100.00;101835.69;4954449;29;20055;-73
2023/05/25 07:15:10;;;;;;;26.48;7.18;;;;;;;13.67;100.00;101839.38;4954660;29;20051;-73
2023/05/25 07:17:37;;;;;;;20.17;5.82;;;;;;;14.13;100.00;101846.41;4954541;28;20508;-73
2023/05/25 07:20:04;;;;;;;24.35;7.72;;;;;;;14.43;100.00;101846.97;4954668;28;20051;-73
2023/05/25 07:22:31;;;;;;;26.27;7.07;;;;;;;14.76;100.00;101848.88;4953898;29;20047;-73
2023/05/25 07:24:58;;;;;;;25.80;6.93;;;;;;;15.10;100.00;101842.63;4954313;29;20500;-72
2023/05/25 07:27:24;;;;;;;28.17;6.78;;;;;;;15.66;100.00;101840.28;4954620;29;20074;-75
2023/05/25 07:29:51;;;;;;;25.02;8.07;;;;;;;16.20;93.40;101848.78;4963713;28;20043;-75
2023/05/25 07:32:17;;;;;;;24.70;8.43;;;;;;;16.59;80.19;101842.66;4973091;28;20050;-73
2023/05/25 07:34:44;;;;;;;16.63;5.35;;;;;;;16.92;73.34;101832.59;4973252;28;20096;-74
2023/05/25 07:37:10;;;;;;;21.45;6.15;;;;;;;17.22;69.05;101843.63;4973429;28;20050;-73
2023/05/25 07:39:39;;;;;;;23.45;5.15;;;;;;;17.59;65.95;101843.78;4973161;28;20059;-73
2023/05/25 07:42:05;;;;;;;17.88;4.90;;;;;;;17.83;64.29;101831.09;4973122;28;20051;-73
2023/05/25 07:44:32;;;;;;;16.25;5.25;;;;;;;17.50;63.17;101836.72;4973192;28;20055;-73
2023/05/25 07:46:58;;;;;;;18.40;4.70;;;;;;;18.31;60.16;101839.88;4954480;28;20051;-73
2023/05/25 07:49:25;;;;;;;16.00;4.55;;;;;;;18.13;57.62;101848.28;4954537;29;20106;-75
2023/05/25 07:51:52;;;;;;;13.57;4.63;;;;;;;17.92;58.13;101850.84;4953718;29;20562;-74
2023/05/25 07:54:18;;;;;;;17.35;4.97;;;;;;;18.08;57.42;101846.13;4953810;29;20562;-74
2023/05/25 07:56:45;;;;;;;14.60;4.20;;;;;;;18.66;56.37;101841.03;4953736;28;20055;-74
2023/05/25 07:59:11;;;;;;;18.35;4.55;;;;;;;18.79;56.78;101845.81;4953608;29;20098;-73
2023/05/25 08:01:38;;;;;;;15.88;4.78;;;;;;;18.94;55.71;101845.84;4953438;28;20055;-73
2023/05/25 08:04:04;;;;;;;18.42;4.80;;;;;;;19.06;53.21;101857.09;4953323;28;20051;-74
2023/05/25 08:06:31;;;;;;;17.55;4.65;;;;;;;19.39;53.25;101849.34;4953307;29;20555;-75
2023/05/25 08:08:58;;;;;;;19.02;4.45;;;;;;;19.38;51.09;101853.09;4953771;29;20099;-73
2023/05/25 08:11:27;;;;;;;15.55;4.45;;;;;;;20.13;50.63;101851.81;4954209;29;20051;-73
2023/05/25 08:13:53;;;;;;;15.50;4.53;;;;;;;20.46;50.89;101843.09;4949755;28;20161;-74
2023/05/25 08:16:20;;;;;;;14.60;4.28;;;;;;;20.27;49.70;101850.88;4953391;28;20130;-74
2023/05/25 08:18:46;;;;;;;13.50;4.32;;;;;;;20.21;49.58;101859.81;4953543;28;20047;-74
2023/05/25 08:21:13;;;;;;;23.42;4.95;;;;;;;20.66;49.11;101847.63;4953099;28;20059;-75
2023/05/25 08:23:41;;;;;;;14.63;4.25;;;;;;;21.20;48.28;101837.84;4953116;29;20047;-72
2023/05/25 08:26:09;;;;;;;19.58;4.70;;;;;;;21.09;47.31;101835.69;4953355;28;20499;-73
2023/05/25 08:28:55;;;;;;;19.27;5.28;;;;;;;20.31;47.31;101843.13;4951247;28;20039;-75
2023/05/25 08:31:22;;;;;;;13.85;4.93;;;;;;;20.42;47.57;101840.75;4972359;28;20043;-74
2023/05/25 08:33:48;;;;;;;14.60;4.68;;;;;;;20.48;47.57;101850.00;4972568;28;20046;-73
2023/05/25 08:36:15;;;;;;;18.05;4.75;;;;;;;20.90;47.44;101840.84;4972552;28;20471;-73
2023/05/25 08:38:41;;;;;;;15.35;4.55;;;;;;;21.81;45.69;101853.41;4972579;28;20046;-74
2023/05/25 08:41:10;;;;;;;13.27;4.07;;;;;;;22.32;43.68;101848.19;4972290;28;20062;-74
2023/05/25 08:43:37;;;;;;;13.95;4.78;;;;;;;21.53;44.39;101842.59;4972390;28;20498;-73
2023/05/25 08:46:05;;;;;;;16.25;5.53;;;;;;;22.02;44.28;101841.44;4972047;28;20051;-73
2023/05/25 08:48:37;;;;;;;17.90;5.13;;;;;;;22.72;43.03;101841.81;4972021;28;20471;-75
2023/05/25 08:51:10;;;;;;;15.52;4.90;;;;;;;22.74;43.44;101837.84;4971906;28;20492;-74
2023/05/25 08:53:39;;;;;;;15.30;4.68;;;;;;;23.25;42.61;101836.19;4972210;28;20525;-74
2023/05/25 08:56:12;;;;;;;17.80;4.80;;;;;;;23.81;40.96;101831.88;4972300;28;20050;-74
2023/05/25 08:58:45;;;;;;;11.98;3.85;;;;;;;23.81;40.14;101835.47;4972170;28;20070;-75
2023/05/25 09:01:17;;;;;;;13.40;4.00;;;;;;;24.37;37.41;101839.19;4972240;28;20455;-76
2023/05/25 09:03:45;;;;;;;10.52;4.20;;;;;;;24.05;38.44;101839.28;4972124;28;20121;-75
2023/05/25 09:06:12;;;;;;;13.52;4.22;;;;;;;24.36;37.81;101843.03;4971977;28;20050;-73
2023/05/25 09:08:39;;;;;;;18.58;4.88;;;;;;;22.87;39.62;101847.03;4971797;28;20103;-75
2023/05/25 09:11:06;;;;;;;10.60;4.20;;;;;;;22.79;39.01;101840.75;4971754;28;20056;-74
2023/05/25 09:13:35;;;;;;;12.57;4.75;;;;;;;22.66;39.29;101842.69;4971234;28;20051;-75
2023/05/25 09:16:01;;;;;;;12.18;4.05;;;;;;;22.64;39.95;101851.09;4971591;28;20047;-74
2023/05/25 09:18:28;;;;;;;13.70;4.30;;;;;;;23.34;38.38;101855.97;4971763;28;20055;-72
2023/05/25 09:20:55;;;;;;;11.02;4.07;;;;;;;23.87;37.23;101847.44;4971789;28;20083;-75
2023/05/25 09:23:22;;;;;;;16.58;4.07;;;;;;;23.48;36.60;101846.59;4971909;28;20572;-74
2023/05/25 09:25:49;;;;;;;14.48;3.83;;;;;;;24.22;35.89;101847.78;4971921;28;20089;-75
2023/05/25 09:28:20;;;;;;;17.85;4.82;;;;;;;25.49;34.71;101836.28;4971832;28;20499;-74
2023/05/25 09:30:49;;;;;;;14.55;4.35;;;;;;;24.86;35.68;101840.22;4954586;28;20453;-74
2023/05/25 09:33:16;;;;;;;14.93;4.65;;;;;;;24.94;35.27;101839.91;4952134;29;20106;-74
2023/05/25 09:35:44;;;;;;;12.98;4.60;;;;;;;25.47;35.37;101838.41;4952117;28;20475;-74
2023/05/25 09:38:15;;;;;;;13.52;4.93;;;;;;;25.32;36.98;101836.09;4935085;29;20047;-73
2023/05/25 09:40:42;;;;;;;16.20;5.40;;;;;;;23.78;38.54;101856.97;4952659;29;20051;-74
2023/05/25 09:43:13;;;;;;;15.05;4.93;;;;;;;23.24;39.76;101862.72;4952553;29;20575;-74
2023/05/25 09:45:53;;;;;;;13.43;5.15;;;;;;;22.66;40.80;101859.91;4952599;28;20059;-73
2023/05/25 09:48:23;;;;;;;15.02;4.65;;;;;;;22.46;41.90;101861.81;4952200;28;20051;-74
2023/05/25 09:50:50;;;;;;;15.57;5.32;;;;;;;22.03;43.61;101859.50;4952298;29;20043;-75
2023/05/25 09:53:17;;;;;;;12.00;4.90;;;;;;;22.65;42.72;101858.25;4952226;29;20051;-74
2023/05/25 09:55:47;;;;;;;12.15;4.38;;;;;;;23.69;40.75;101861.88;4952299;29;20058;-74
2023/05/25 09:58:23;;;;;;;11.63;3.83;;;;;;;23.87;40.39;101863.88;4952251;28;20098;-74
2023/05/25 10:00:53;;;;;;;10.60;4.47;;;;;;;22.31;41.81;101860.13;4952174;29;20071;-74
2023/05/25 10:03:20;;;;;;;14.20;5.00;;;;;;;21.16;44.26;101861.16;4952431;29;20050;-73
2023/05/25 10:05:47;;;;;;;11.80;4.88;;;;;;;21.70;43.49;101862.16;4952304;29;20073;-74
2023/05/25 10:08:18;;;;;;;11.43;3.47;;;;;;;22.26;42.24;101862.69;4952533;28;20487;-76
2023/05/25 10:10:48;;;;;;;13.85;4.15;;;;;;;23.04;40.84;101859.19;4953196;28;20075;-74
2023/05/25 10:13:20;;;;;;;12.43;4.85;;;;;;;21.71;41.92;101863.84;4952258;28;20129;-75
2023/05/25 10:15:51;;;;;;;16.23;4.45;;;;;;;21.27;43.31;101866.00;4952445;29;20459;-74
2023/05/25 10:18:24;;;;;;;15.20;4.73;;;;;;;22.75;41.45;101855.91;4952149;29;20051;-74
2023/05/25 10:20:59;;;;;;;11.40;4.35;;;;;;;22.53;42.12;101868.16;4951619;28;20054;-74
2023/05/25 10:23:34;;;;;;;16.67;4.78;;;;;;;22.00;43.35;101865.41;4944812;29;20082;-75
2023/05/25 10:26:04;;;;;;;16.55;5.05;;;;;;;22.16;42.70;101864.16;4953143;28;20039;-74
2023/05/25 10:28:36;;;;;;;25.95;6.35;;;;;;;22.84;41.89;101869.34;4955485;29;20051;-75
2023/05/25 10:31:04;;;;;;;15.85;5.05;;;;;;;22.40;42.48;101863.53;4955272;29;20051;-74
2023/05/25 10:33:32;;;;;;;14.70;4.53;;;;;;;23.02;41.69;101869.53;4955392;28;20137;-73
2023/05/25 10:35:59;;;;;;;12.18;4.57;;;;;;;22.89;41.57;101864.94;4955403;28;20471;-73
2023/05/25 10:38:38;;;;;;;10.45;4.13;;;;;;;23.64;40.31;101856.19;4955345;29;20075;-73
2023/05/25 10:41:05;;;;;;;18.85;4.93;;;;;;;23.51;40.23;101865.34;4955242;29;20139;-75
2023/05/25 10:43:32;;;;;;;16.73;4.55;;;;;;;23.10;38.85;101866.53;4954971;29;20114;-74
2023/05/25 10:45:58;;;;;;;16.45;4.50;;;;;;;23.01;38.38;101857.72;4955529;29;20075;-72
2023/05/25 10:48:43;;;;;;;11.00;4.25;;;;;;;23.46;37.71;101860.50;4955786;28;20047;-74
2023/05/25 10:51:10;;;;;;;14.75;4.68;;;;;;;23.42;37.84;101863.91;4949493;28;20043;-74
2023/05/25 10:53:37;;;;;;;13.82;5.00;;;;;;;22.70;38.64;101863.91;4955516;29;20048;-73
2023/05/25 10:56:09;;;;;;;10.02;4.15;;;;;;;21.92;40.46;101858.25;4954559;28;20067;-74
2023/05/25 10:58:42;;;;;;;11.57;4.82;;;;;;;21.01;42.45;101854.94;4954962;28;20419;-72
2023/05/25 11:01:14;;;;;;;18.08;5.38;;;;;;;20.37;42.86;101856.81;4955300;29;20452;-74
2023/05/25 11:03:47;;;;;;;16.55;5.07;;;;;;;20.79;42.96;101854.19;4955453;29;20051;-74
2023/05/25 11:06:15;;;;;;;13.82;4.82;;;;;;;20.56;44.20;101857.19;4955187;28;20047;-74
2023/05/25 11:08:55;;;;;;;14.07;5.00;;;;;;;20.71;44.14;101863.38;4955093;29;20476;-74
2023/05/25 11:11:41;;;;;;;15.00;4.80;;;;;;;21.02;43.15;101859.38;4954611;28;20043;-75
2023/05/25 11:14:29;;;;;;;14.23;4.10;;;;;;;21.00;42.36;101856.00;4935128;29;20428;-74
2023/05/25 11:17:15;;;;;;;15.20;5.47;;;;;;;20.47;42.89;101855.66;4935651;29;20048;-74
2023/05/25 11:19:45;;;;;;;16.85;4.78;;;;;;;20.25;43.55;101855.69;4954585;28;20054;-73
2023/05/25 11:22:20;;;;;;;20.27;5.97;;;;;;;20.16;43.05;101863.16;4954369;28;20078;-73